Time;durP1;ratioP1;P1;durP2;ratioP2;P2;SDS_P1;SDS_P2;PMS_P1;PMS_P2;Temp;Humidity;BMP_temperature;BMP_pressure;BME280_temperature;BME280_humidity;BME280_pressure;Samples;Min_cycle;Max_cycle;Signal;HPM_P1;HPM_P2
2021/10/03 00:00:25;;;;;;;;;;;16.80;99.90;;;;;;5077700;28;19928;-77
2021/10/03 00:02:51;;;;;;;;;;;16.80;99.90;;;;;;5072317;28;19912;-77
2021/10/03 00:05:18;;;;;;;;;;;16.80;99.90;;;;;;5075854;28;19912;-77
2021/10/03 00:07:48;;;;;;;;;;;16.80;99.90;;;;;;5071062;28;19944;-76
2021/10/03 00:10:14;;;;;;;;;;;16.80;99.90;;;;;;5065803;28;19919;-76
2021/10/03 00:12:40;;;;;;;;;;;16.70;99.90;;;;;;5075163;28;19912;-76
2021/10/03 00:15:07;;;;;;;;;;;16.80;99.90;;;;;;5073570;28;19920;-76
2021/10/03 00:17:33;;;;;;;;;;;16.80;99.90;;;;;;5071520;28;19913;-76
2021/10/03 00:19:59;;;;;;;;;;;16.80;99.90;;;;;;5073626;28;19938;-76
2021/10/03 00:22:24;;;;;;;;;;;16.90;99.90;;;;;;5073929;28;20001;-76
2021/10/03 00:24:50;;;;;;;;;;;16.90;99.90;;;;;;5071080;28;19959;-76
2021/10/03 00:27:16;;;;;;;;;;;16.90;99.90;;;;;;5077210;28;19917;-76
2021/10/03 00:29:42;;;;;;;;;;;16.90;99.90;;;;;;5078494;28;19916;-76
2021/10/03 00:32:07;;;;;;;;;;;16.90;99.90;;;;;;5067742;28;19924;-76
2021/10/03 00:34:33;;;;;;;;;;;16.90;99.90;;;;;;5068238;28;19912;-76
2021/10/03 00:36:59;;;;;;;;;;;16.90;99.90;;;;;;5063637;28;19913;-76
2021/10/03 00:39:24;;;;;;;;;;;16.80;99.90;;;;;;5074684;28;19943;-76
2021/10/03 00:41:51;;;;;;;;;;;16.80;99.90;;;;;;5072456;28;19982;-76
2021/10/03 00:44:17;;;;;;;;;;;16.80;99.90;;;;;;5074256;28;19924;-76
2021/10/03 00:46:42;;;;;;;;;;;16.80;99.90;;;;;;5072717;28;20356;-76
2021/10/03 00:49:08;;;;;;;;;;;16.80;99.90;;;;;;5070171;28;19912;-76
2021/10/03 00:51:34;;;;;;;;;;;16.80;99.90;;;;;;5073122;28;19935;-76
2021/10/03 00:53:59;;;;;;;;;;;16.80;99.90;;;;;;5072579;28;19921;-76
2021/10/03 00:56:25;;;;;;;;;;;16.80;99.90;;;;;;5078330;28;19917;-76
2021/10/03 00:58:51;;;;;;;;;;;16.80;99.90;;;;;;5075668;28;19958;-76
2021/10/03 01:01:17;;;;;;;;;;;16.90;99.90;;;;;;5072780;28;19912;-77
2021/10/03 01:03:42;;;;;;;;;;;17.00;99.90;;;;;;5071107;28;19923;-77
2021/10/03 01:06:08;;;;;;;;;;;17.00;99.90;;;;;;5072932;28;20021;-77
2021/10/03 01:08:34;;;;;;;;;;;17.10;99.90;;;;;;5073255;28;19912;-77
2021/10/03 01:11:00;;;;;;;;;;;17.10;99.90;;;;;;5071984;28;20270;-77
2021/10/03 01:13:26;;;;;;;;;;;17.10;99.90;;;;;;5072380;28;19917;-77
2021/10/03 01:15:52;;;;;;;;;;;17.00;99.90;;;;;;5074912;28;19958;-76
2021/10/03 01:18:18;;;;;;;;;;;17.00;99.90;;;;;;5067977;28;20404;-76
2021/10/03 01:20:45;;;;;;;;;;;16.90;99.90;;;;;;5080454;28;19916;-77
2021/10/03 01:23:10;;;;;;;;;;;16.90;99.90;;;;;;5070790;28;19967;-76
2021/10/03 01:25:42;;;;;;;;;;;16.80;99.90;;;;;;5080383;28;20309;-76
2021/10/03 01:28:08;;;;;;;;;;;16.90;99.90;;;;;;5070626;28;19912;-76
2021/10/03 01:30:35;;;;;;;;;;;16.90;99.90;;;;;;5062846;28;19966;-76
2021/10/03 01:33:01;;;;;;;;;;;16.90;99.90;;;;;;5070971;28;20375;-76
2021/10/03 01:35:27;;;;;;;;;;;16.90;99.90;;;;;;5063931;28;19920;-77
2021/10/03 01:37:52;;;;;;;;;;;16.80;99.90;;;;;;5072584;28;20392;-77
2021/10/03 01:40:19;;;;;;;;;;;16.80;99.90;;;;;;5065261;28;19952;-77
2021/10/03 01:42:45;;;;;;;;;;;16.80;99.90;;;;;;5071026;28;20389;-77
2021/10/03 01:45:12;;;;;;;;;;;16.70;99.90;;;;;;5077439;28;19924;-76
2021/10/03 01:47:56;;;;;;;;;;;16.70;99.90;;;;;;5078355;28;19919;-77
2021/10/03 01:50:22;;;;;;;;;;;16.70;99.90;;;;;;5074702;28;19995;-78
2021/10/03 01:52:47;;;;;;;;;;;16.70;99.90;;;;;;5072375;28;19954;-77
2021/10/03 01:55:15;;;;;;;;;;;16.60;99.90;;;;;;5075574;28;19913;-77
2021/10/03 01:57:40;;;;;;;;;;;16.60;99.90;;;;;;5068584;28;19973;-77
2021/10/03 02:00:06;;;;;;;;;;;16.60;99.90;;;;;;5070707;28;20405;-77
2021/10/03 02:02:32;;;;;;;;;;;16.60;99.90;;;;;;5071171;28;19913;-77
2021/10/03 02:04:58;;;;;;;;;;;16.60;99.90;;;;;;5074710;28;20808;-76
2021/10/03 02:07:24;;;;;;;;;;;16.70;99.90;;;;;;5071923;28;19916;-77
2021/10/03 02:09:49;;;;;;;;;;;16.70;99.90;;;;;;5070739;28;20007;-77
2021/10/03 02:12:15;;;;;;;;;;;16.70;99.90;;;;;;5071584;28;19912;-77
2021/10/03 02:14:40;;;;;;;;;;;16.80;99.90;;;;;;5076482;28;19920;-77
2021/10/03 02:17:06;;;;;;;;;;;16.80;99.90;;;;;;5076002;28;19932;-77
2021/10/03 02:19:32;;;;;;;;;;;16.80;99.90;;;;;;5073126;28;19965;-77
2021/10/03 02:21:58;;;;;;;;;;;16.80;99.90;;;;;;5074019;28;19912;-76
2021/10/03 02:24:23;;;;;;;;;;;16.80;99.90;;;;;;5070542;28;19927;-76
2021/10/03 02:26:49;;;;;;;;;;;16.80;99.90;;;;;;5070792;28;20419;-78
2021/10/03 02:29:15;;;;;;;;;;;16.80;99.90;;;;;;5077087;28;19919;-77
2021/10/03 02:31:41;;;;;;;;;;;16.80;99.90;;;;;;5073001;28;19916;-76
2021/10/03 02:34:06;;;;;;;;;;;16.80;99.90;;;;;;5074710;28;19921;-77
2021/10/03 02:36:32;;;;;;;;;;;16.80;99.90;;;;;;5082082;28;19920;-78
2021/10/03 02:38:58;;;;;;;;;;;16.80;99.90;;;;;;5068223;28;19923;-77
2021/10/03 02:41:24;;;;;;;;;;;16.90;99.90;;;;;;5077568;28;19994;-79
2021/10/03 02:43:52;;;;;;;;;;;16.90;99.90;;;;;;5072330;28;20314;-78
2021/10/03 02:46:18;;;;;;;;;;;16.90;99.90;;;;;;5079727;28;19916;-77
2021/10/03 02:48:49;;;;;;;;;;;16.90;99.90;;;;;;5074525;28;19912;-77
2021/10/03 02:51:16;;;;;;;;;;;16.90;99.90;;;;;;5071169;28;20266;-77
2021/10/03 02:53:42;;;;;;;;;;;17.00;99.90;;;;;;5072186;28;19917;-77
2021/10/03 02:56:08;;;;;;;;;;;17.00;99.90;;;;;;5076857;28;20205;-77
2021/10/03 02:58:33;;;;;;;;;;;17.00;99.90;;;;;;5070658;28;19954;-77
2021/10/03 03:00:59;;;;;;;;;;;17.10;99.90;;;;;;5077457;28;19912;-76
2021/10/03 03:03:24;;;;;;;;;;;17.10;99.90;;;;;;5069381;28;19923;-76
2021/10/03 03:05:50;;;;;;;;;;;17.10;99.90;;;;;;5069759;28;19913;-76
2021/10/03 03:08:16;;;;;;;;;;;17.10;99.90;;;;;;5072031;28;19916;-77
2021/10/03 03:10:42;;;;;;;;;;;17.20;99.90;;;;;;5071767;28;19920;-77
2021/10/03 03:13:07;;;;;;;;;;;17.20;99.90;;;;;;5074186;28;19912;-77
2021/10/03 03:15:33;;;;;;;;;;;17.30;99.90;;;;;;5078330;28;19912;-77
2021/10/03 03:17:59;;;;;;;;;;;17.30;99.90;;;;;;5071797;28;19939;-77
2021/10/03 03:20:24;;;;;;;;;;;17.30;99.90;;;;;;5065212;28;19991;-77
2021/10/03 03:22:50;;;;;;;;;;;17.30;99.90;;;;;;5073190;28;20423;-77
2021/10/03 03:25:16;;;;;;;;;;;17.40;99.90;;;;;;5076258;28;20007;-77
2021/10/03 03:27:42;;;;;;;;;;;17.40;99.90;;;;;;5077838;28;19912;-76
2021/10/03 03:30:08;;;;;;;;;;;17.50;99.90;;;;;;5079143;28;19935;-77
2021/10/03 03:32:34;;;;;;;;;;;17.70;99.90;;;;;;5071520;28;19919;-76
2021/10/03 03:35:00;;;;;;;;;;;17.70;99.90;;;;;;5072198;28;19913;-77
2021/10/03 03:37:25;;;;;;;;;;;17.70;99.90;;;;;;5075430;28;19916;-77
2021/10/03 03:39:51;;;;;;;;;;;17.60;99.90;;;;;;5080219;28;19912;-76
2021/10/03 03:42:17;;;;;;;;;;;17.60;99.90;;;;;;5088076;28;19912;-76
2021/10/03 03:44:42;;;;;;;;;;;17.60;99.90;;;;;;5076172;28;19916;-76
2021/10/03 03:47:08;;;;;;;;;;;17.60;99.90;;;;;;5068225;28;19912;-76
2021/10/03 03:49:34;;;;;;;;;;;17.60;99.90;;;;;;5070728;28;19912;-77
2021/10/03 03:52:00;;;;;;;;;;;17.60;99.90;;;;;;5074738;28;19916;-77
2021/10/03 03:54:25;;;;;;;;;;;17.60;99.90;;;;;;5073151;28;20003;-77
2021/10/03 03:56:51;;;;;;;;;;;17.60;99.90;;;;;;5070374;28;19912;-77
2021/10/03 03:59:17;;;;;;;;;;;17.50;99.90;;;;;;5071524;28;20385;-77
2021/10/03 04:01:42;;;;;;;;;;;17.50;99.90;;;;;;5076904;28;19912;-77
2021/10/03 04:04:08;;;;;;;;;;;17.50;99.90;;;;;;5072744;28;19916;-76
2021/10/03 04:06:33;;;;;;;;;;;17.50;99.90;;;;;;5077192;28;19912;-77
2021/10/03 04:08:59;;;;;;;;;;;17.60;99.90;;;;;;5076912;28;19930;-79
2021/10/03 04:11:25;;;;;;;;;;;17.60;99.90;;;;;;5076785;28;19990;-76
2021/10/03 04:13:51;;;;;;;;;;;17.70;99.90;;;;;;5070377;28;19916;-77
2021/10/03 04:16:16;;;;;;;;;;;17.70;99.90;;;;;;5072891;28;19920;-77
2021/10/03 04:18:42;;;;;;;;;;;17.70;99.90;;;;;;5073872;28;19912;-76
2021/10/03 04:21:08;;;;;;;;;;;17.60;99.90;;;;;;5074529;28;19912;-77
2021/10/03 04:23:33;;;;;;;;;;;17.70;99.90;;;;;;5069974;28;19916;-77
2021/10/03 04:25:59;;;;;;;;;;;17.70;99.90;;;;;;5073175;28;19916;-77
2021/10/03 04:28:25;;;;;;;;;;;17.60;99.90;;;;;;5074720;28;19912;-77
2021/10/03 04:30:52;;;;;;;;;;;17.70;99.90;;;;;;5079866;28;20003;-78
2021/10/03 04:33:17;;;;;;;;;;;17.70;99.90;;;;;;5068961;28;19912;-77
2021/10/03 04:35:43;;;;;;;;;;;17.70;99.90;;;;;;5071086;28;19919;-77
2021/10/03 04:38:08;;;;;;;;;;;17.80;99.90;;;;;;5071177;28;19921;-77
2021/10/03 04:40:34;;;;;;;;;;;17.80;99.90;;;;;;5074673;28;19916;-77
2021/10/03 04:43:00;;;;;;;;;;;17.80;99.90;;;;;;5071753;28;19934;-77
2021/10/03 04:45:25;;;;;;;;;;;17.80;99.90;;;;;;5078374;28;19996;-77
2021/10/03 04:47:51;;;;;;;;;;;17.70;99.90;;;;;;5078763;28;19912;-77
2021/10/03 04:50:17;;;;;;;;;;;17.70;99.90;;;;;;5077513;28;19919;-77
2021/10/03 04:52:43;;;;;;;;;;;17.70;99.90;;;;;;5078417;28;19935;-77
2021/10/03 04:55:12;;;;;;;;;;;17.70;99.90;;;;;;5073382;28;19912;-77
2021/10/03 04:57:37;;;;;;;;;;;17.70;99.90;;;;;;5071618;28;19912;-77
2021/10/03 05:00:07;;;;;;;;;;;17.80;99.90;;;;;;5080195;28;20299;-79
2021/10/03 05:02:33;;;;;;;;;;;17.90;99.90;;;;;;5074789;28;19923;-79
2021/10/03 05:04:58;;;;;;;;;;;17.90;99.90;;;;;;5073490;28;19916;-77
2021/10/03 05:07:24;;;;;;;;;;;18.00;99.90;;;;;;5071842;28;19918;-79
2021/10/03 05:09:50;;;;;;;;;;;18.00;99.90;;;;;;5073079;28;20442;-77
2021/10/03 05:12:15;;;;;;;;;;;18.00;99.90;;;;;;5076381;28;19965;-77
2021/10/03 05:14:41;;;;;;;;;;;18.00;99.90;;;;;;5077092;28;20282;-77
2021/10/03 05:17:07;;;;;;;;;;;18.10;99.90;;;;;;5076967;28;20525;-77
2021/10/03 05:19:33;;;;;;;;;;;18.10;99.90;;;;;;5083547;28;19934;-77
2021/10/03 05:21:58;;;;;;;;;;;18.00;99.90;;;;;;5078895;28;19999;-77
2021/10/03 05:24:24;;;;;;;;;;;18.00;99.90;;;;;;5080815;28;20313;-77
2021/10/03 05:26:50;;;;;;;;;;;18.00;99.90;;;;;;5077328;28;19912;-77
2021/10/03 05:29:15;;;;;;;;;;;18.00;99.90;;;;;;5074381;28;19917;-77
2021/10/03 05:31:41;;;;;;;;;;;18.10;99.90;;;;;;5080030;28;19912;-77
2021/10/03 05:34:07;;;;;;;;;;;18.10;99.90;;;;;;5076899;28;19935;-77
2021/10/03 05:36:32;;;;;;;;;;;18.10;99.90;;;;;;5076480;28;20397;-77
2021/10/03 05:39:00;;;;;;;;;;;18.20;99.90;;;;;;5078568;28;19912;-77
2021/10/03 05:41:29;;;;;;;;;;;18.30;99.90;;;;;;5084749;28;19912;-77
2021/10/03 05:43:55;;;;;;;;;;;18.30;99.90;;;;;;5081717;28;19999;-77
2021/10/03 05:46:21;;;;;;;;;;;18.30;99.90;;;;;;5080299;28;19913;-77
2021/10/03 05:48:47;;;;;;;;;;;18.30;99.90;;;;;;5075783;28;19920;-77
2021/10/03 05:51:12;;;;;;;;;;;18.40;99.90;;;;;;5078424;28;19912;-77
2021/10/03 05:53:39;;;;;;;;;;;18.40;99.90;;;;;;5076287;28;19934;-77
2021/10/03 05:56:05;;;;;;;;;;;18.40;99.90;;;;;;5080929;28;19919;-76
2021/10/03 05:58:31;;;;;;;;;;;18.40;99.90;;;;;;5074064;28;19923;-77
2021/10/03 06:00:56;;;;;;;;;;;18.50;99.90;;;;;;5077275;28;19951;-76
2021/10/03 06:03:22;;;;;;;;;;;18.50;99.90;;;;;;5079179;28;19920;-77
2021/10/03 06:05:48;;;;;;;;;;;18.60;99.90;;;;;;5081128;28;19908;-77
2021/10/03 06:08:16;;;;;;;;;;;18.70;99.90;;;;;;5073173;28;19995;-77
2021/10/03 06:10:44;;;;;;;;;;;18.80;99.90;;;;;;5081319;28;19920;-77
2021/10/03 06:13:10;;;;;;;;;;;18.80;99.90;;;;;;5072442;28;19956;-77
2021/10/03 06:15:39;;;;;;;;;;;18.80;99.90;;;;;;5078050;28;19920;-77
2021/10/03 06:18:05;;;;;;;;;;;18.80;99.90;;;;;;5085579;28;19912;-77
2021/10/03 06:20:31;;;;;;;;;;;18.80;99.90;;;;;;5083259;28;19994;-77
2021/10/03 06:22:56;;;;;;;;;;;18.80;99.90;;;;;;5078090;28;19962;-77
2021/10/03 06:25:22;;;;;;;;;;;18.70;99.90;;;;;;5085216;28;20382;-77
2021/10/03 06:27:47;;;;;;;;;;;18.80;99.90;;;;;;5073657;28;20058;-77
2021/10/03 06:30:13;;;;;;;;;;;18.70;99.90;;;;;;5076799;28;19957;-77
2021/10/03 06:32:39;;;;;;;;;;;18.70;99.90;;;;;;5072291;28;19921;-77
2021/10/03 06:35:05;;;;;;;;;;;18.60;99.90;;;;;;5076090;28;19912;-77
2021/10/03 06:37:31;;;;;;;;;;;18.70;99.90;;;;;;5068042;28;19913;-80
2021/10/03 06:39:57;;;;;;;;;;;18.90;99.90;;;;;;5073136;28;19923;-78
2021/10/03 06:42:23;;;;;;;;;;;19.10;99.90;;;;;;5079290;28;19913;-78
2021/10/03 06:44:48;;;;;;;;;;;19.20;99.90;;;;;;5079191;28;20467;-77
2021/10/03 06:47:14;;;;;;;;;;;19.20;99.90;;;;;;5077894;28;20004;-78
2021/10/03 06:49:40;;;;;;;;;;;19.30;99.90;;;;;;5074921;28;19916;-78
2021/10/03 06:52:07;;;;;;;;;;;19.30;99.90;;;;;;5080405;28;19920;-78
2021/10/03 06:54:33;;;;;;;;;;;19.30;99.90;;;;;;5079634;28;20049;-78
2021/10/03 06:56:58;;;;;;;;;;;19.20;99.90;;;;;;5072761;28;19948;-78
2021/10/03 06:59:24;;;;;;;;;;;19.20;99.90;;;;;;5084524;28;19987;-78
2021/10/03 07:01:50;;;;;;;;;;;19.20;99.90;;;;;;5071080;28;19988;-78
2021/10/03 07:04:16;;;;;;;;;;;19.30;99.90;;;;;;5075506;28;20396;-75
2021/10/03 07:06:41;;;;;;;;;;;19.30;99.90;;;;;;5074845;28;20007;-75
2021/10/03 07:09:08;;;;;;;;;;;19.20;99.90;;;;;;5079538;28;20568;-75
2021/10/03 07:11:33;;;;;;;;;;;19.00;99.90;;;;;;5072868;28;20002;-75
2021/10/03 07:13:59;;;;;;;;;;;18.70;99.90;;;;;;5074599;28;20000;-76
2021/10/03 07:16:24;;;;;;;;;;;18.40;99.90;;;;;;5074489;28;19912;-76
2021/10/03 07:18:50;;;;;;;;;;;18.20;99.90;;;;;;5074194;28;19952;-75
2021/10/03 07:21:16;;;;;;;;;;;18.20;99.90;;;;;;5077066;28;19916;-74
2021/10/03 07:23:41;;;;;;;;;;;18.20;99.90;;;;;;5079134;28;19916;-75
2021/10/03 07:26:07;;;;;;;;;;;18.10;99.90;;;;;;5078174;28;20366;-77
2021/10/03 07:28:34;;;;;;;;;;;18.20;99.90;;;;;;5074389;28;19995;-76
2021/10/03 07:31:00;;;;;;;;;;;18.30;99.90;;;;;;5079791;28;19912;-77
2021/10/03 07:33:26;;;;;;;;;;;18.40;99.90;;;;;;5077169;28;19923;-76
2021/10/03 07:35:52;;;;;;;;;;;18.40;99.90;;;;;;5073043;28;20391;-77
2021/10/03 07:38:18;;;;;;;;;;;18.50;99.90;;;;;;5081920;28;19919;-76
2021/10/03 07:40:43;;;;;;;;;;;18.50;99.90;;;;;;5080563;28;19962;-77
2021/10/03 07:43:09;;;;;;;;;;;18.60;99.90;;;;;;5077658;28;19919;-76
2021/10/03 07:45:35;;;;;;;;;;;18.60;99.90;;;;;;5082661;28;19912;-76
2021/10/03 07:48:01;;;;;;;;;;;18.70;99.90;;;;;;5076250;28;19920;-75
2021/10/03 07:50:26;;;;;;;;;;;18.70;99.90;;;;;;5082560;28;20377;-80
2021/10/03 07:52:52;;;;;;;;;;;18.70;99.90;;;;;;5076596;28;19920;-74
2021/10/03 07:55:18;;;;;;;;;;;18.70;99.90;;;;;;5082556;28;19913;-76
2021/10/03 07:57:43;;;;;;;;;;;18.70;99.90;;;;;;5076418;28;19950;-75
2021/10/03 08:00:16;;;;;;;;;;;18.60;99.90;;;;;;5078248;28;19919;-76
2021/10/03 08:02:41;;;;;;;;;;;18.60;99.90;;;;;;5092078;28;20003;-76
2021/10/03 08:05:07;;;;;;;;;;;18.60;99.90;;;;;;5077533;28;19987;-76
2021/10/03 08:07:36;;;;;;;;;;;18.50;99.90;;;;;;5075396;28;19916;-76
2021/10/03 08:10:02;;;;;;;;;;;18.40;99.90;;;;;;5075371;28;19955;-75
2021/10/03 08:12:33;;;;;;;;;;;18.40;99.90;;;;;;5078326;28;20007;-75
2021/10/03 08:14:59;;;;;;;;;;;18.60;99.90;;;;;;5078634;28;19912;-76
2021/10/03 08:17:25;;;;;;;;;;;18.80;99.90;;;;;;5076022;28;19916;-75
2021/10/03 08:19:50;;;;;;;;;;;19.00;99.90;;;;;;5076390;28;19913;-76
2021/10/03 08:22:16;;;;;;;;;;;19.20;99.90;;;;;;5079507;28;19924;-75
2021/10/03 08:24:42;;;;;;;;;;;19.30;99.90;;;;;;5074725;28;19924;-79
2021/10/03 08:27:07;;;;;;;;;;;19.40;99.90;;;;;;5074634;28;19913;-76
2021/10/03 08:29:33;;;;;;;;;;;19.50;99.90;;;;;;5082844;28;19912;-76
2021/10/03 08:31:59;;;;;;;;;;;19.70;99.90;;;;;;5079627;28;19913;-76
2021/10/03 08:34:24;;;;;;;;;;;19.80;99.90;;;;;;5073991;28;19927;-74
2021/10/03 08:36:50;;;;;;;;;;;19.90;99.90;;;;;;5074693;28;19908;-76
2021/10/03 08:39:16;;;;;;;;;;;20.00;99.90;;;;;;5077350;28;19915;-76
2021/10/03 08:41:41;;;;;;;;;;;20.20;99.90;;;;;;5080881;28;19936;-76
2021/10/03 08:44:07;;;;;;;;;;;20.30;99.90;;;;;;5080041;28;19916;-76
2021/10/03 08:46:32;;;;;;;;;;;20.40;99.90;;;;;;5076250;28;20032;-76
2021/10/03 08:49:01;;;;;;;;;;;20.40;99.90;;;;;;5081518;28;19916;-77
2021/10/03 08:51:27;;;;;;;;;;;20.50;99.90;;;;;;5074046;28;21878;-75
2021/10/03 08:53:52;;;;;;;;;;;20.50;99.90;;;;;;5077920;28;19916;-76
2021/10/03 08:56:18;;;;;;;;;;;20.40;99.90;;;;;;5072221;28;19935;-76
2021/10/03 08:58:43;;;;;;;;;;;20.40;99.90;;;;;;5074195;28;19951;-76
2021/10/03 09:01:11;;;;;;;;;;;20.30;99.90;;;;;;5073098;28;19908;-76
2021/10/03 09:03:36;;;;;;;;;;;20.40;99.90;;;;;;5069702;28;19928;-76
2021/10/03 09:06:03;;;;;;;;;;;20.50;99.90;;;;;;5070826;28;19912;-76
2021/10/03 09:08:29;;;;;;;;;;;20.70;99.90;;;;;;5073638;28;19913;-76
2021/10/03 09:10:57;;;;;;;;;;;20.80;99.90;;;;;;5070692;28;20496;-76
2021/10/03 09:13:37;;;;;;;;;;;20.70;99.90;;;;;;5074151;28;20356;-76
2021/10/03 09:16:03;;;;;;;;;;;20.70;99.90;;;;;;5072567;28;20378;-76
2021/10/03 09:18:36;;;;;;;;;;;20.50;99.90;;;;;;5080530;28;19912;-75
2021/10/03 09:21:02;;;;;;;;;;;20.20;99.90;;;;;;5072127;28;20543;-76
2021/10/03 09:23:28;;;;;;;;;;;19.90;99.90;;;;;;5086290;28;19927;-76
2021/10/03 09:25:53;;;;;;;;;;;19.60;99.90;;;;;;5074559;28;19930;-76
2021/10/03 09:28:25;;;;;;;;;;;19.50;99.90;;;;;;5076934;28;20289;-75
2021/10/03 09:30:59;;;;;;;;;;;19.40;99.90;;;;;;5067759;28;19917;-77
2021/10/03 09:33:25;;;;;;;;;;;19.30;99.90;;;;;;5070065;28;20012;-75
2021/10/03 09:36:00;;;;;;;;;;;19.30;99.90;;;;;;5073963;28;19970;-76
2021/10/03 09:38:27;;;;;;;;;;;19.40;99.90;;;;;;5073710;28;19919;-76
2021/10/03 09:41:00;;;;;;;;;;;19.40;99.90;;;;;;5075896;28;19975;-75
2021/10/03 09:43:46;;;;;;;;;;;19.40;99.90;;;;;;5078176;28;19998;-76
2021/10/03 09:46:35;;;;;;;;;;;19.30;99.90;;;;;;5078535;28;19917;-76
2021/10/03 09:49:01;;;;;;;;;;;19.20;99.90;;;;;;5075620;28;19912;-76
2021/10/03 09:51:27;;;;;;;;;;;19.20;99.90;;;;;;5074436;28;19917;-75
2021/10/03 09:53:53;;;;;;;;;;;19.10;99.90;;;;;;5077175;28;20039;-76
2021/10/03 09:56:18;;;;;;;;;;;19.00;99.90;;;;;;5072957;28;19970;-75
2021/10/03 09:58:46;;;;;;;;;;;19.00;99.90;;;;;;5071509;28;20390;-76
2021/10/03 10:01:12;;;;;;;;;;;19.10;99.90;;;;;;5069162;28;19948;-76
2021/10/03 10:03:38;;;;;;;;;;;19.00;99.90;;;;;;5075941;28;19983;-75
2021/10/03 10:06:05;;;;;;;;;;;18.90;99.90;;;;;;5075226;28;19912;-76
2021/10/03 10:08:31;;;;;;;;;;;18.80;99.90;;;;;;5075825;28;19908;-76
2021/10/03 10:11:02;;;;;;;;;;;18.50;99.90;;;;;;5074229;28;20430;-76
2021/10/03 10:13:28;;;;;;;;;;;18.40;99.90;;;;;;5067534;28;19920;-76
2021/10/03 10:15:54;;;;;;;;;;;18.20;99.90;;;;;;5073150;28;19913;-76
2021/10/03 10:18:22;;;;;;;;;;;18.10;99.90;;;;;;5069681;28;19913;-76
2021/10/03 10:20:47;;;;;;;;;;;17.90;99.90;;;;;;5068840;28;19913;-75
2021/10/03 10:23:15;;;;;;;;;;;17.80;99.90;;;;;;5072020;28;19923;-76
2021/10/03 10:25:51;;;;;;;;;;;17.80;99.90;;;;;;5072808;28;19975;-75
2021/10/03 10:28:17;;;;;;;;;;;17.80;99.90;;;;;;5072239;28;19935;-76
2021/10/03 10:31:01;;;;;;;;;;;17.80;99.90;;;;;;5071834;28;20023;-75
2021/10/03 10:33:47;;;;;;;;;;;17.90;99.90;;;;;;5073512;28;19935;-76
2021/10/03 10:36:13;;;;;;;;;;;18.00;99.90;;;;;;5071640;28;19927;-76
2021/10/03 10:38:39;;;;;;;;;;;18.20;99.90;;;;;;5072603;28;19913;-75
2021/10/03 10:41:25;;;;;;;;;;;18.30;99.90;;;;;;5071281;28;19908;-75
2021/10/03 10:43:50;;;;;;;;;;;18.30;99.90;;;;;;5071754;28;19912;-72
2021/10/03 10:46:34;;;;;;;;;;;18.40;99.90;;;;;;5063225;28;19971;-76
2021/10/03 10:49:18;;;;;;;;;;;18.50;99.90;;;;;;5074412;28;19915;-77
2021/10/03 10:51:44;;;;;;;;;;;18.60;99.90;;;;;;5075469;28;19913;-77
2021/10/03 10:54:14;;;;;;;;;;;18.80;99.90;;;;;;5076777;28;19908;-76
2021/10/03 10:56:39;;;;;;;;;;;18.90;99.90;;;;;;5073847;28;19978;-75
2021/10/03 10:59:05;;;;;;;;;;;19.00;99.90;;;;;;5077178;28;19912;-74
2021/10/03 11:01:30;;;;;;;;;;;19.20;99.90;;;;;;5080910;28;20365;-76
2021/10/03 11:04:19;;;;;;;;;;;19.40;99.90;;;;;;5078202;28;19928;-76
2021/10/03 11:06:48;;;;;;;;;;;19.60;99.90;;;;;;5074610;28;19912;-75
2021/10/03 11:09:16;;;;;;;;;;;19.60;99.90;;;;;;5078893;28;19919;-75
2021/10/03 11:11:54;;;;;;;;;;;19.70;99.90;;;;;;5069299;28;19913;-75
2021/10/03 11:14:20;;;;;;;;;;;19.90;99.90;;;;;;5078153;28;19912;-75
2021/10/03 11:16:47;;;;;;;;;;;20.10;99.90;;;;;;5075145;28;19998;-75
2021/10/03 11:19:20;;;;;;;;;;;20.50;99.90;;;;;;5077311;28;19923;-75
2021/10/03 11:21:51;;;;;;;;;;;20.80;99.90;;;;;;5074633;28;19923;-74
2021/10/03 11:24:18;;;;;;;;;;;21.00;99.90;;;;;;5078026;28;19921;-75
2021/10/03 11:26:49;;;;;;;;;;;21.30;99.90;;;;;;5076781;28;19916;-77
2021/10/03 11:29:15;;;;;;;;;;;21.40;99.90;;;;;;5075487;28;20258;-74
2021/10/03 11:31:43;;;;;;;;;;;21.50;99.90;;;;;;5074364;28;19912;-74
2021/10/03 11:34:09;;;;;;;;;;;21.30;99.90;;;;;;5079577;28;19956;-77
2021/10/03 11:36:55;;;;;;;;;;;21.30;99.90;;;;;;5074560;28;20673;-76
2021/10/03 11:39:32;;;;;;;;;;;21.20;99.90;;;;;;5079207;28;19973;-76
2021/10/03 11:41:58;;;;;;;;;;;21.10;99.90;;;;;;5074798;28;19981;-74
2021/10/03 11:44:23;;;;;;;;;;;21.10;99.90;;;;;;5076239;28;20405;-74
2021/10/03 11:47:00;;;;;;;;;;;21.10;99.90;;;;;;5075912;28;19913;-74
2021/10/03 11:49:30;;;;;;;;;;;21.20;99.90;;;;;;5074137;28;19912;-74
2021/10/03 11:51:57;;;;;;;;;;;21.50;99.90;;;;;;5073964;28;19969;-76
2021/10/03 11:54:41;;;;;;;;;;;21.60;99.90;;;;;;5075669;28;19920;-75
2021/10/03 11:57:29;;;;;;;;;;;21.70;99.90;;;;;;5072778;28;19921;-74
2021/10/03 12:00:08;;;;;;;;;;;21.60;99.90;;;;;;5076053;28;20320;-76
2021/10/03 12:02:37;;;;;;;;;;;21.60;99.90;;;;;;5073441;28;19913;-74
2021/10/03 12:05:04;;;;;;;;;;;21.40;99.90;;;;;;5074062;28;19967;-75
2021/10/03 12:07:29;;;;;;;;;;;21.30;99.90;;;;;;5070661;28;19999;-76
2021/10/03 12:10:00;;;;;;;;;;;21.20;99.90;;;;;;5072460;28;20289;-72
2021/10/03 12:12:44;;;;;;;;;;;20.90;99.90;;;;;;5071543;28;19959;-76
2021/10/03 12:15:30;;;;;;;;;;;20.50;99.90;;;;;;5079674;28;19913;-75
2021/10/03 12:17:55;;;;;;;;;;;20.20;99.90;;;;;;5071424;28;20378;-75
2021/10/03 12:20:21;;;;;;;;;;;20.00;99.90;;;;;;5074933;28;19953;-72
2021/10/03 12:22:54;;;;;;;;;;;20.00;99.90;;;;;;5075221;28;19916;-75
2021/10/03 12:25:20;;;;;;;;;;;20.10;99.90;;;;;;5073051;28;19917;-75
2021/10/03 12:27:58;;;;;;;;;;;20.10;99.90;;;;;;5073779;28;19912;-74
2021/10/03 12:30:23;;;;;;;;;;;20.10;99.90;;;;;;5069281;28;19963;-74
2021/10/03 12:33:02;;;;;;;;;;;20.30;99.90;;;;;;5072834;28;19916;-76
2021/10/03 12:35:28;;;;;;;;;;;20.30;99.90;;;;;;5075057;28;19916;-74
2021/10/03 12:37:53;;;;;;;;;;;20.40;99.90;;;;;;5074020;28;19912;-76
2021/10/03 12:40:22;;;;;;;;;;;20.50;99.90;;;;;;5075102;28;20008;-75
2021/10/03 12:42:48;;;;;;;;;;;20.70;99.90;;;;;;5070259;28;19912;-76
2021/10/03 12:45:15;;;;;;;;;;;20.80;99.90;;;;;;5073318;28;20011;-76
2021/10/03 12:47:41;;;;;;;;;;;21.00;99.90;;;;;;5073693;28;19935;-74
2021/10/03 12:50:07;;;;;;;;;;;21.10;99.90;;;;;;5076561;28;19917;-76
2021/10/03 12:52:33;;;;;;;;;;;21.00;99.90;;;;;;5071754;28;20439;-74
2021/10/03 12:54:59;;;;;;;;;;;20.80;99.90;;;;;;5073859;28;19920;-75
2021/10/03 12:57:24;;;;;;;;;;;20.60;99.90;;;;;;5070255;28;19966;-74
2021/10/03 12:59:50;;;;;;;;;;;20.50;99.90;;;;;;5072806;28;20039;-76
2021/10/03 13:02:16;;;;;;;;;;;20.60;99.90;;;;;;5072548;28;19912;-76
2021/10/03 13:04:42;;;;;;;;;;;20.80;99.90;;;;;;5076559;28;19923;-75
2021/10/03 13:07:07;;;;;;;;;;;20.90;99.90;;;;;;5073831;28;19973;-76
2021/10/03 13:09:33;;;;;;;;;;;21.10;99.90;;;;;;5072772;28;19912;-76
2021/10/03 13:11:58;;;;;;;;;;;21.20;99.90;;;;;;5067505;28;19920;-75
2021/10/03 13:14:24;;;;;;;;;;;21.10;99.90;;;;;;5069920;28;19996;-73
2021/10/03 13:16:51;;;;;;;;;;;21.10;99.90;;;;;;5087363;28;19915;-76
2021/10/03 13:19:17;;;;;;;;;;;21.20;99.90;;;;;;5072301;28;19916;-75
2021/10/03 13:21:46;;;;;;;;;;;21.30;99.90;;;;;;5072916;28;19966;-74
2021/10/03 13:24:12;;;;;;;;;;;21.30;99.90;;;;;;5073697;28;19920;-76
2021/10/03 13:26:37;;;;;;;;;;;21.20;99.90;;;;;;5075054;28;19908;-76
2021/10/03 13:29:04;;;;;;;;;;;21.00;99.90;;;;;;5075727;28;20306;-76
2021/10/03 13:31:29;;;;;;;;;;;20.80;99.90;;;;;;5073453;28;19917;-75
2021/10/03 13:33:55;;;;;;;;;;;20.80;99.90;;;;;;5072286;28;19924;-76
2021/10/03 13:36:23;;;;;;;;;;;20.70;99.90;;;;;;5082425;28;19921;-76
2021/10/03 13:38:49;;;;;;;;;;;20.70;99.90;;;;;;5080979;28;19918;-77
2021/10/03 13:41:16;;;;;;;;;;;20.60;99.90;;;;;;5074416;28;19926;-76
2021/10/03 13:43:41;;;;;;;;;;;20.60;99.90;;;;;;5076117;28;19962;-74
2021/10/03 13:46:08;;;;;;;;;;;20.70;99.90;;;;;;5077764;28;19916;-76
2021/10/03 13:48:35;;;;;;;;;;;20.80;99.90;;;;;;5082839;28;19912;-77
2021/10/03 13:51:00;;;;;;;;;;;21.00;99.90;;;;;;5082618;28;19999;-78
2021/10/03 13:53:29;;;;;;;;;;;21.20;99.90;;;;;;5077547;28;19916;-76
2021/10/03 13:55:55;;;;;;;;;;;21.20;99.90;;;;;;5083866;28;19919;-77
2021/10/03 13:58:21;;;;;;;;;;;21.20;99.90;;;;;;5079534;28;19913;-77
2021/10/03 14:00:47;;;;;;;;;;;21.10;99.90;;;;;;5080935;28;19950;-77
2021/10/03 14:03:13;;;;;;;;;;;21.20;99.90;;;;;;5079561;28;19923;-77
2021/10/03 14:05:39;;;;;;;;;;;21.30;99.90;;;;;;5078382;28;19916;-75
2021/10/03 14:08:04;;;;;;;;;;;21.40;99.90;;;;;;5089354;28;19913;-77
2021/10/03 14:10:30;;;;;;;;;;;21.50;99.90;;;;;;5076315;28;19935;-79
2021/10/03 14:12:56;;;;;;;;;;;21.60;99.90;;;;;;5091084;28;19909;-74
2021/10/03 14:15:22;;;;;;;;;;;21.70;99.90;;;;;;5083275;28;19919;-77